Time;durP1;ratioP1;P1;durP2;ratioP2;P2;SDS_P1;SDS_P2;PMS_P1;PMS_P2;Temp;Humidity;BMP_temperature;BMP_pressure;BME280_temperature;BME280_humidity;BME280_pressure;Samples;Min_cycle;Max_cycle;Signal;HPM_P1;HPM_P2
2023/08/14 00:02:22;;;;;;;1.85;1.52;;;;;;;14.66;57.71;101604.81;4983428;28;20049;-75
2023/08/14 00:04:48;;;;;;;4.43;1.35;;;;;;;14.71;57.71;101608.09;4982870;28;20038;-77
2023/08/14 00:07:17;;;;;;;3.47;2.25;;;;;;;14.58;57.54;101609.56;4981714;28;20052;-76
2023/08/14 00:09:42;;;;;;;4.68;1.65;;;;;;;14.46;57.85;101605.72;4981745;28;20044;-76
2023/08/14 00:12:08;;;;;;;4.20;2.28;;;;;;;14.46;58.00;101598.69;4980706;28;20030;-76
2023/08/14 00:14:33;;;;;;;2.40;1.95;;;;;;;14.39;57.81;101593.72;4961980;28;20025;-75
2023/08/14 00:16:59;;;;;;;3.30;1.70;;;;;;;14.30;58.08;101602.88;4997470;28;20033;-79
2023/08/14 00:19:24;;;;;;;2.15;1.83;;;;;;;14.26;58.06;101602.16;4994358;28;20166;-77
2023/08/14 00:21:50;;;;;;;4.13;1.95;;;;;;;14.23;58.13;101598.81;4982849;28;20076;-77
2023/08/14 00:24:16;;;;;;;4.22;2.08;;;;;;;14.13;58.33;101595.72;4981075;28;20052;-77
2023/08/14 00:26:41;;;;;;;6.30;1.85;;;;;;;14.04;58.44;101602.25;4979948;28;20044;-77
2023/08/14 00:29:07;;;;;;;5.13;2.60;;;;;;;14.05;58.53;101608.34;4980460;28;20099;-77
2023/08/14 00:31:35;;;;;;;2.92;2.25;;;;;;;14.06;58.78;101604.81;4963934;28;20044;-77
2023/08/14 00:34:01;;;;;;;6.03;3.20;;;;;;;14.00;58.75;101594.56;4995924;28;20137;-77
2023/08/14 00:36:26;;;;;;;3.33;1.67;;;;;;;13.99;58.81;101593.72;4990342;28;20045;-77
2023/08/14 00:38:52;;;;;;;4.28;2.25;;;;;;;13.94;58.66;101591.28;4988373;28;21995;-75
2023/08/14 00:41:17;;;;;;;6.72;2.88;;;;;;;13.91;58.73;101580.88;4955762;28;20065;-78
2023/08/14 00:43:43;;;;;;;5.60;2.40;;;;;;;13.88;59.22;101583.66;4982163;28;20046;-78
2023/08/14 00:46:08;;;;;;;3.30;2.10;;;;;;;13.87;59.05;101584.56;4983927;28;20538;-77
2023/08/14 00:48:35;;;;;;;6.80;2.33;;;;;;;13.85;58.93;101583.78;4979870;28;20046;-77
2023/08/14 00:51:00;;;;;;;3.75;2.55;;;;;;;13.80;58.88;101583.13;4981656;28;20029;-77
2023/08/14 00:53:28;;;;;;;3.92;2.47;;;;;;;13.78;59.04;101587.56;4990947;28;20084;-77
2023/08/14 00:55:54;;;;;;;3.17;1.88;;;;;;;13.81;59.01;101589.22;4964152;28;20787;-76
2023/08/14 00:58:21;;;;;;;4.32;2.33;;;;;;;13.82;58.81;101583.91;4957621;28;20096;-78
2023/08/14 01:00:47;;;;;;;5.38;1.90;;;;;;;13.77;58.94;101578.00;4975539;28;20481;-76
2023/08/14 01:03:13;;;;;;;4.22;1.73;;;;;;;13.71;58.95;101580.88;4994667;28;20176;-78
2023/08/14 01:05:39;;;;;;;3.35;1.52;;;;;;;13.63;59.23;101585.59;4961663;28;20038;-77
2023/08/14 01:08:04;;;;;;;6.05;2.28;;;;;;;13.57;59.23;101588.50;4994906;28;20037;-76
2023/08/14 01:10:45;;;;;;;5.60;2.40;;;;;;;13.55;59.30;101585.03;4981886;28;20045;-77
2023/08/14 01:13:38;;;;;;;5.05;1.92;;;;;;;13.50;59.47;101582.59;4979391;28;20108;-77
2023/08/14 01:16:13;;;;;;;2.65;1.90;;;;;;;13.60;58.98;101585.72;4980592;28;20076;-78
2023/08/14 01:18:42;;;;;;;3.20;1.98;;;;;;;13.61;58.88;101572.53;4963413;28;20513;-77
2023/08/14 01:21:17;;;;;;;2.53;1.42;;;;;;;13.55;58.78;101574.53;4997806;28;20048;-77
2023/08/14 01:24:00;;;;;;;2.30;1.88;;;;;;;13.45;59.15;101577.53;4992306;28;20520;-75
2023/08/14 01:26:28;;;;;;;2.08;1.70;;;;;;;13.49;58.92;101573.00;4978516;28;20091;-77
2023/08/14 01:28:55;;;;;;;2.05;1.40;;;;;;;13.50;58.80;101575.56;4962459;28;20041;-77
2023/08/14 01:31:20;;;;;;;4.78;1.60;;;;;;;13.53;58.69;101578.06;4977523;28;20030;-78
2023/08/14 01:33:46;;;;;;;2.78;2.05;;;;;;;13.45;58.87;101574.91;4975029;28;20519;-75
2023/08/14 01:37:01;;;;;;;2.47;2.00;;;;;;;13.42;58.60;101582.91;4979837;28;20031;-76
2023/08/14 01:39:36;;;;;;;6.22;2.10;;;;;;;13.36;58.63;101583.19;4970934;28;20169;-78
2023/08/14 01:42:15;;;;;;;3.17;1.63;;;;;;;13.29;58.97;101571.19;4995942;28;20037;-75
2023/08/14 01:44:44;;;;;;;3.63;1.73;;;;;;;13.24;58.96;101574.00;4978446;28;20109;-78
2023/08/14 01:47:12;;;;;;;2.38;2.10;;;;;;;13.22;59.18;101581.06;4978443;28;20045;-76
2023/08/14 01:49:40;;;;;;;4.88;2.10;;;;;;;13.22;59.36;101575.81;4980429;28;20286;-76
2023/08/14 01:52:06;;;;;;;5.63;1.60;;;;;;;13.29;59.22;101571.19;4981463;28;20500;-77
2023/08/14 01:54:35;;;;;;;3.90;1.80;;;;;;;13.24;59.00;101575.78;4981317;28;20460;-77
2023/08/14 01:57:01;;;;;;;2.20;1.35;;;;;;;13.20;59.04;101572.41;4960249;28;20042;-78
2023/08/14 01:59:44;;;;;;;3.65;1.85;;;;;;;13.21;59.41;101562.78;4975863;28;20053;-78
2023/08/14 02:02:12;;;;;;;3.67;2.50;;;;;;;13.19;59.31;101567.25;4980577;28;20083;-78
2023/08/14 02:04:38;;;;;;;4.65;2.17;;;;;;;13.24;59.19;101570.53;4960703;28;20771;-75
2023/08/14 02:07:05;;;;;;;3.92;1.50;;;;;;;13.17;59.08;101561.19;4984464;28;20034;-77
2023/08/14 02:09:34;;;;;;;3.05;2.15;;;;;;;13.16;59.00;101556.84;4934040;28;20077;-76
2023/08/14 02:12:00;;;;;;;1.92;1.48;;;;;;;13.13;59.36;101557.81;4995273;28;20158;-76
2023/08/14 02:14:26;;;;;;;2.17;1.35;;;;;;;13.09;59.18;101558.84;4955224;28;20136;-77
2023/08/14 02:16:51;;;;;;;1.80;1.20;;;;;;;13.04;58.96;101545.91;4991549;28;20044;-76
2023/08/14 02:19:17;;;;;;;3.40;1.27;;;;;;;13.01;59.12;101551.31;4971317;28;20049;-75
2023/08/14 02:21:42;;;;;;;4.72;1.35;;;;;;;12.97;59.35;101541.84;4996117;28;20037;-76
2023/08/14 02:24:08;;;;;;;2.88;1.52;;;;;;;12.98;59.10;101545.31;4993027;28;20061;-75
2023/08/14 02:26:33;;;;;;;1.65;1.08;;;;;;;12.97;59.25;101536.59;4971297;28;20064;-76
2023/08/14 02:28:59;;;;;;;4.38;1.65;;;;;;;12.95;59.02;101542.81;4971718;28;20129;-75
2023/08/14 02:31:24;;;;;;;2.13;0.90;;;;;;;12.97;59.12;101544.47;4975838;28;20041;-76
2023/08/14 02:33:50;;;;;;;2.65;1.58;;;;;;;12.97;59.17;101544.47;4951931;28;20045;-76
2023/08/14 02:36:15;;;;;;;5.00;1.92;;;;;;;12.92;59.10;101540.31;4962973;28;20037;-78
2023/08/14 02:38:41;;;;;;;2.85;1.90;;;;;;;12.87;59.32;101545.72;4955464;28;20640;-76
2023/08/14 02:41:06;;;;;;;3.28;1.80;;;;;;;12.83;59.18;101536.28;4993462;28;20034;-77
2023/08/14 02:43:32;;;;;;;3.55;2.42;;;;;;;12.77;59.20;101541.78;4952971;28;20061;-77
2023/08/14 02:45:58;;;;;;;1.83;1.48;;;;;;;12.77;59.43;101544.41;4997696;28;20037;-76
2023/08/14 02:48:23;;;;;;;2.88;1.85;;;;;;;12.82;59.11;101540.66;4944453;28;20519;-76
2023/08/14 02:50:49;;;;;;;2.58;1.27;;;;;;;12.77;59.07;101531.28;4967904;28;20033;-76
2023/08/14 02:53:15;;;;;;;1.90;1.50;;;;;;;12.76;59.15;101530.44;4994119;28;20165;-77
2023/08/14 02:55:41;;;;;;;3.78;1.55;;;;;;;12.70;59.24;101535.91;4975746;28;20041;-77
2023/08/14 02:58:07;;;;;;;4.43;1.20;;;;;;;12.67;59.21;101531.59;4969661;28;20064;-76
2023/08/14 03:00:32;;;;;;;3.08;1.20;;;;;;;12.64;59.16;101529.06;4992755;28;20485;-76
2023/08/14 03:02:58;;;;;;;1.98;1.00;;;;;;;12.66;59.16;101527.25;4953668;28;20041;-75
2023/08/14 03:05:23;;;;;;;1.55;0.88;;;;;;;12.66;58.87;101535.13;4993218;28;20905;-75
2023/08/14 03:07:49;;;;;;;1.55;1.10;;;;;;;12.59;58.83;101532.81;4952975;28;20057;-75
2023/08/14 03:10:14;;;;;;;4.10;1.13;;;;;;;12.54;59.02;101538.22;4979342;28;20034;-77
2023/08/14 03:12:40;;;;;;;3.10;1.30;;;;;;;12.50;59.04;101531.38;4950224;28;20862;-78
2023/08/14 03:15:06;;;;;;;2.00;0.90;;;;;;;12.49;59.25;101537.53;4996000;28;20022;-75
2023/08/14 03:17:31;;;;;;;2.90;1.10;;;;;;;12.45;59.38;101530.72;4966284;28;20076;-75
2023/08/14 03:19:57;;;;;;;2.25;1.25;;;;;;;12.47;58.88;101532.34;4976248;28;20053;-76
2023/08/14 03:22:22;;;;;;;1.58;1.05;;;;;;;12.49;59.01;101527.03;4984366;28;20468;-77
2023/08/14 03:24:48;;;;;;;2.80;1.45;;;;;;;12.62;58.77;101527.44;4982681;28;20048;-76
2023/08/14 03:27:13;;;;;;;1.60;0.70;;;;;;;12.57;58.91;101525.00;4977302;28;20034;-76
2023/08/14 03:29:39;;;;;;;3.47;1.20;;;;;;;12.52;58.81;101524.31;4987618;28;20543;-78
2023/08/14 03:32:04;;;;;;;2.42;1.27;;;;;;;12.43;59.01;101528.13;4993974;28;20033;-75
2023/08/14 03:34:30;;;;;;;1.73;0.77;;;;;;;12.40;59.03;101522.16;4968685;28;20045;-77
2023/08/14 03:36:56;;;;;;;1.60;0.68;;;;;;;12.43;59.02;101529.91;4976654;28;20088;-77
2023/08/14 03:39:22;;;;;;;3.25;0.60;;;;;;;12.52;58.70;101531.34;4959304;28;20050;-78
2023/08/14 03:41:48;;;;;;;2.10;1.00;;;;;;;12.55;58.58;101532.06;4975367;28;20758;-76
2023/08/14 03:44:14;;;;;;;2.22;0.82;;;;;;;12.54;58.76;101525.13;4974268;28;20041;-77
2023/08/14 03:46:42;;;;;;;1.48;0.70;;;;;;;12.51;58.61;101525.22;4978200;28;20027;-78
2023/08/14 03:49:07;;;;;;;1.50;0.90;;;;;;;12.42;58.40;101515.97;4979191;28;20049;-78
2023/08/14 03:51:33;;;;;;;2.42;1.08;;;;;;;12.32;58.73;101516.34;4978095;28;20033;-79
2023/08/14 03:53:58;;;;;;;4.20;1.33;;;;;;;12.26;58.84;101530.53;4979009;28;20121;-78
2023/08/14 03:56:24;;;;;;;3.22;1.80;;;;;;;12.21;59.22;101528.06;4976159;28;20049;-78
2023/08/14 03:58:49;;;;;;;5.65;1.73;;;;;;;12.27;59.34;101532.25;4946804;28;20256;-78
2023/08/14 04:01:15;;;;;;;1.65;0.93;;;;;;;12.28;59.25;101533.94;4987782;28;20248;-77
2023/08/14 04:03:40;;;;;;;3.20;1.40;;;;;;;12.31;59.09;101532.97;4977243;28;20057;-79
2023/08/14 04:06:06;;;;;;;2.97;1.90;;;;;;;12.34;59.14;101532.88;4982957;28;20121;-77
2023/08/14 04:08:31;;;;;;;2.33;1.77;;;;;;;12.33;59.08;101531.16;4993245;28;20107;-77
2023/08/14 04:11:00;;;;;;;3.17;1.98;;;;;;;12.32;59.34;101542.56;4980887;28;20048;-76
2023/08/14 04:13:26;;;;;;;6.47;2.55;;;;;;;12.34;59.43;101544.22;4976937;28;20048;-75
2023/08/14 04:15:59;;;;;;;4.47;2.08;;;;;;;12.35;59.28;101545.06;4994319;28;20509;-76
2023/08/14 04:18:28;;;;;;;2.70;1.23;;;;;;;12.43;59.18;101543.03;4975294;28;20126;-78
2023/08/14 04:20:54;;;;;;;3.35;1.88;;;;;;;12.41;59.06;101544.84;4980867;28;20038;-77
2023/08/14 04:23:20;;;;;;;3.97;2.05;;;;;;;12.41;59.24;101545.69;5007707;28;20061;-77
2023/08/14 04:25:46;;;;;;;2.95;1.85;;;;;;;12.45;59.09;101544.66;4999956;28;20068;-77
2023/08/14 04:28:11;;;;;;;6.38;2.40;;;;;;;12.44;59.21;101539.47;4982375;28;20341;-77
2023/08/14 04:30:37;;;;;;;3.08;2.30;;;;;;;12.44;59.35;101537.69;4980922;28;20037;-77
2023/08/14 04:33:02;;;;;;;3.05;2.00;;;;;;;12.44;59.06;101534.22;4978588;28;20377;-76
2023/08/14 04:35:28;;;;;;;4.07;1.77;;;;;;;12.47;59.15;101532.34;4977600;28;20112;-77
2023/08/14 04:37:54;;;;;;;4.07;1.98;;;;;;;12.50;59.16;101534.84;4982758;28;20595;-78
2023/08/14 04:40:20;;;;;;;2.40;1.90;;;;;;;12.56;59.21;101532.91;4982070;28;20387;-76
2023/08/14 04:42:47;;;;;;;4.78;2.00;;;;;;;12.62;59.15;101536.16;4978694;28;20528;-78
2023/08/14 04:45:12;;;;;;;10.85;2.90;;;;;;;12.69;59.41;101537.69;4982160;28;20021;-77
2023/08/14 04:47:38;;;;;;;3.85;2.30;;;;;;;12.77;59.07;101534.75;4991275;28;20104;-77
2023/08/14 04:50:04;;;;;;;4.22;2.30;;;;;;;12.88;58.83;101544.81;4966671;28;20037;-77
2023/08/14 04:52:30;;;;;;;6.13;2.20;;;;;;;13.01;58.88;101540.81;4979857;28;20417;-77
2023/08/14 04:54:55;;;;;;;2.58;2.20;;;;;;;13.14;58.83;101535.06;4982071;28;20059;-77
2023/08/14 04:57:24;;;;;;;3.22;2.60;;;;;;;13.23;58.47;101542.59;4982533;28;20121;-78
2023/08/14 04:59:50;;;;;;;4.68;2.40;;;;;;;13.29;57.92;101537.06;4994965;28;20104;-79
2023/08/14 05:02:16;;;;;;;8.95;3.20;;;;;;;13.38;57.95;101534.06;4979530;28;20030;-76
2023/08/14 05:04:41;;;;;;;4.43;2.40;;;;;;;13.41;57.75;101533.94;4980517;28;20468;-78
2023/08/14 05:07:07;;;;;;;3.10;2.63;;;;;;;13.42;57.91;101540.88;4979520;28;20034;-78
2023/08/14 05:09:35;;;;;;;5.57;2.70;;;;;;;13.52;57.75;101531.72;4981625;28;20760;-76
2023/08/14 05:12:01;;;;;;;2.75;2.45;;;;;;;13.67;57.91;101535.50;4995588;28;20046;-76
2023/08/14 05:14:28;;;;;;;3.80;2.78;;;;;;;13.92;57.08;101529.19;4961168;28;20139;-78
2023/08/14 05:16:53;;;;;;;4.15;2.70;;;;;;;14.34;56.65;101526.44;4981624;28;20064;-76
2023/08/14 05:19:20;;;;;;;3.78;2.80;;;;;;;14.51;55.86;101537.97;4962293;28;20045;-77
2023/08/14 05:21:46;;;;;;;2.78;2.33;;;;;;;14.85;55.76;101525.84;4980027;28;20037;-75
2023/08/14 05:24:14;;;;;;;3.60;2.65;;;;;;;15.21;54.32;101517.09;4995626;28;20092;-77
2023/08/14 05:26:39;;;;;;;3.15;2.83;;;;;;;15.43;53.80;101519.56;4965318;28;20028;-76
2023/08/14 05:29:05;;;;;;;3.58;2.25;;;;;;;15.59;53.03;101518.72;4985611;28;20046;-76
2023/08/14 05:31:30;;;;;;;4.88;2.67;;;;;;;15.78;52.32;101525.66;4976891;28;20176;-77
2023/08/14 05:33:56;;;;;;;2.67;1.75;;;;;;;16.68;50.59;101522.59;4979499;28;20069;-77
2023/08/14 05:36:24;;;;;;;3.75;2.15;;;;;;;18.82;45.92;101513.34;4981862;28;20117;-77
2023/08/14 05:38:50;;;;;;;5.15;2.80;;;;;;;20.67;41.42;101511.34;4994650;28;20046;-75
2023/08/14 05:41:16;;;;;;;4.22;1.52;;;;;;;21.10;40.44;101519.66;4978816;28;20772;-76
2023/08/14 05:43:41;;;;;;;5.75;1.25;;;;;;;21.23;40.24;101522.25;4976894;28;20098;-74
2023/08/14 05:46:07;;;;;;;6.53;1.80;;;;;;;21.19;39.94;101519.94;4964900;28;20073;-77
2023/08/14 05:48:35;;;;;;;4.28;1.65;;;;;;;21.56;38.89;101515.38;4994524;28;20056;-76
2023/08/14 05:51:01;;;;;;;2.88;1.17;;;;;;;21.62;38.75;101520.19;4964838;28;21485;-77
2023/08/14 05:53:26;;;;;;;2.67;1.20;;;;;;;21.07;39.71;101517.22;4979124;28;20034;-76
2023/08/14 05:55:52;;;;;;;2.55;1.10;;;;;;;20.41;40.63;101524.69;4992335;28;20040;-77
2023/08/14 05:58:17;;;;;;;1.40;1.05;;;;;;;19.50;43.30;101524.78;4979097;28;20626;-76
2023/08/14 06:00:43;;;;;;;2.33;1.33;;;;;;;19.23;43.66;101531.00;4978387;28;20061;-77
2023/08/14 06:03:08;;;;;;;1.90;1.30;;;;;;;19.34;43.54;101524.13;4979660;28;20068;-76
2023/08/14 06:05:35;;;;;;;2.25;0.90;;;;;;;20.02;43.42;101518.56;4996289;28;20033;-76
2023/08/14 06:08:01;;;;;;;1.90;0.82;;;;;;;20.72;41.51;101525.13;4979724;28;20045;-77
2023/08/14 06:10:27;;;;;;;3.05;0.73;;;;;;;21.79;39.63;101528.69;4994790;28;20025;-78
2023/08/14 06:12:52;;;;;;;3.88;0.80;;;;;;;22.41;36.82;101525.56;4977069;28;20056;-75
2023/08/14 06:15:19;;;;;;;2.25;0.55;;;;;;;23.08;36.95;101526.38;4982341;28;20667;-76
2023/08/14 06:17:45;;;;;;;2.33;0.73;;;;;;;22.66;36.50;101526.25;4976731;28;20046;-77
2023/08/14 06:20:11;;;;;;;1.30;0.55;;;;;;;22.84;36.61;101527.41;4975320;28;20103;-77
2023/08/14 06:22:40;;;;;;;2.63;0.65;;;;;;;22.31;39.25;101532.59;4979196;28;20030;-77
2023/08/14 06:25:07;;;;;;;3.60;0.73;;;;;;;21.99;38.36;101541.28;4979273;28;20065;-75
2023/08/14 06:27:33;;;;;;;1.95;0.30;;;;;;;21.59;38.49;101544.38;4960862;28;20969;-77
2023/08/14 06:29:59;;;;;;;1.67;0.77;;;;;;;21.38;39.69;101551.28;4994197;28;20034;-76
2023/08/14 06:32:24;;;;;;;0.93;0.32;;;;;;;20.68;40.98;101544.88;4967226;28;20030;-75
2023/08/14 06:34:50;;;;;;;3.03;0.30;;;;;;;20.36;42.77;101545.41;4979873;28;20821;-75
2023/08/14 06:37:15;;;;;;;1.67;0.45;;;;;;;20.24;41.81;101540.94;4986096;28;20029;-76
2023/08/14 06:39:42;;;;;;;2.70;0.45;;;;;;;20.06;41.89;101535.97;4992815;28;20046;-76
2023/08/14 06:42:08;;;;;;;2.83;0.55;;;;;;;20.43;41.64;101532.53;4983038;28;20038;-77
2023/08/14 06:44:34;;;;;;;1.35;0.43;;;;;;;20.63;41.08;101534.59;4977751;28;20064;-77
2023/08/14 06:46:59;;;;;;;2.58;0.43;;;;;;;20.57;41.16;101531.53;4993603;28;20624;-77
2023/08/14 06:49:27;;;;;;;1.85;0.40;;;;;;;20.48;41.37;101536.53;4993656;28;20092;-76
2023/08/14 06:51:52;;;;;;;1.25;0.50;;;;;;;20.63;42.29;101529.28;4974974;28;20077;-77
2023/08/14 06:54:17;;;;;;;0.93;0.20;;;;;;;20.42;41.09;101534.34;4976858;28;20073;-77
2023/08/14 06:56:43;;;;;;;2.03;0.65;;;;;;;20.56;41.40;101527.19;4993051;28;20038;-76
2023/08/14 06:59:09;;;;;;;2.55;0.50;;;;;;;20.63;40.45;101523.13;4977116;28;20122;-76
2023/08/14 07:01:34;;;;;;;1.58;0.38;;;;;;;20.39;40.82;101521.28;4977613;28;21001;-76
2023/08/14 07:04:01;;;;;;;1.25;0.25;;;;;;;20.24;41.70;101522.38;4976921;28;20058;-76
2023/08/14 07:06:26;;;;;;;2.47;0.20;;;;;;;20.62;41.53;101511.66;4993779;28;20041;-78
2023/08/14 07:08:52;;;;;;;3.53;0.30;;;;;;;20.75;40.38;101516.91;4980028;28;20041;-76
2023/08/14 07:11:17;;;;;;;2.30;0.30;;;;;;;21.06;40.34;101522.66;4993585;28;20041;-76
2023/08/14 07:13:43;;;;;;;1.08;0.20;;;;;;;22.36;36.86;101517.94;4981876;28;20077;-76
2023/08/14 07:16:09;;;;;;;1.60;0.13;;;;;;;22.35;37.61;101515.41;4962454;28;20156;-77
2023/08/14 07:18:34;;;;;;;2.47;0.13;;;;;;;21.96;37.04;101509.59;4994653;28;20084;-77
2023/08/14 07:20:59;;;;;;;2.15;1.10;;;;;;;21.44;37.74;101514.44;4994725;28;20030;-75
2023/08/14 07:23:25;;;;;;;0.73;0.20;;;;;;;21.39;39.37;101515.75;4981572;28;20147;-77
2023/08/14 07:25:51;;;;;;;1.52;0.20;;;;;;;21.36;39.23;101523.00;4975114;28;20041;-75
2023/08/14 07:28:17;;;;;;;0.98;0.22;;;;;;;21.04;39.10;101519.25;4994817;28;20060;-75
2023/08/14 07:30:45;;;;;;;0.90;0.35;;;;;;;20.87;38.67;101515.22;4979033;28;20548;-76
2023/08/14 07:33:15;;;;;;;0.88;0.20;;;;;;;20.83;39.67;101521.69;4995486;28;20129;-76
2023/08/14 07:35:41;;;;;;;2.70;0.85;;;;;;;20.89;40.37;101527.41;4982466;28;20040;-76
2023/08/14 07:38:07;;;;;;;1.75;0.20;;;;;;;21.15;39.65;101529.94;4981129;28;20543;-76
2023/08/14 07:40:36;;;;;;;0.45;0.20;;;;;;;21.48;38.95;101541.69;4976030;28;20044;-76
2023/08/14 07:43:01;;;;;;;2.92;0.30;;;;;;;22.09;38.20;101542.28;4979299;28;20092;-78
2023/08/14 07:45:27;;;;;;;2.50;0.30;;;;;;;21.72;37.88;101541.63;4978653;28;20042;-76
2023/08/14 07:47:52;;;;;;;2.63;0.20;;;;;;;21.86;38.31;101538.72;4980830;28;21469;-78
2023/08/14 07:50:17;;;;;;;2.88;0.38;;;;;;;22.14;39.06;101549.91;4980100;28;20061;-77
2023/08/14 07:52:43;;;;;;;3.85;0.38;;;;;;;22.55;39.82;101546.59;4979058;28;20096;-77
2023/08/14 07:55:08;;;;;;;3.88;0.20;;;;;;;23.09;37.16;101546.72;4980346;28;20065;-77
2023/08/14 07:57:34;;;;;;;1.73;0.55;;;;;;;23.02;35.54;101551.72;4980221;28;20561;-76
2023/08/14 07:59:59;;;;;;;0.80;0.13;;;;;;;23.85;35.12;101554.56;4984528;28;20065;-75
2023/08/14 08:02:26;;;;;;;5.78;0.30;;;;;;;24.74;33.07;101552.13;4979036;28;20048;-77
2023/08/14 08:04:51;;;;;;;0.65;0.20;;;;;;;25.55;33.28;101554.53;4975067;28;20101;-78
2023/08/14 08:07:17;;;;;;;0.63;0.10;;;;;;;25.42;32.24;101558.34;4982738;28;20037;-75
2023/08/14 08:09:42;;;;;;;2.53;0.25;;;;;;;24.82;31.71;101553.13;4980266;28;20490;-76
2023/08/14 08:12:08;;;;;;;1.30;0.38;;;;;;;23.97;33.34;101553.56;4992054;28;20034;-76
2023/08/14 08:14:34;;;;;;;1.30;0.30;;;;;;;24.54;32.90;101556.56;4966033;28;20500;-77
2023/08/14 08:17:00;;;;;;;0.70;0.15;;;;;;;25.59;32.78;101553.28;4983472;28;20044;-76
2023/08/14 08:19:25;;;;;;;2.45;0.28;;;;;;;26.31;30.89;101553.59;4980099;28;20041;-76
2023/08/14 08:21:54;;;;;;;1.00;0.20;;;;;;;27.31;30.42;101542.75;4978365;28;20752;-75
2023/08/14 08:24:19;;;;;;;2.17;0.20;;;;;;;28.61;27.78;101540.88;4980471;28;20046;-76
2023/08/14 08:26:45;;;;;;;3.08;0.20;;;;;;;29.30;27.48;101546.03;4975952;28;20045;-75
2023/08/14 08:29:11;;;;;;;1.58;0.20;;;;;;;29.60;25.14;101539.13;4970316;28;20115;-75
2023/08/14 08:31:36;;;;;;;0.90;0.10;;;;;;;30.05;24.34;101536.81;4994103;28;20053;-74
2023/08/14 08:34:02;;;;;;;0.73;0.10;;;;;;;30.74;23.50;101537.81;4983002;28;20042;-75
2023/08/14 08:36:27;;;;;;;0.70;0.20;;;;;;;30.70;23.14;101535.66;4990590;28;20459;-76
2023/08/14 08:38:53;;;;;;;1.95;0.13;;;;;;;31.17;21.69;101529.22;4980979;28;20049;-76
2023/08/14 08:41:30;;;;;;;1.60;0.20;;;;;;;31.78;22.77;101537.22;4994409;28;20539;-76
2023/08/14 08:44:04;;;;;;;1.65;0.10;;;;;;;31.39;21.43;101532.88;4979058;28;20409;-77
2023/08/14 08:46:35;;;;;;;5.57;0.20;;;;;;;31.24;22.99;101540.94;4995367;28;20053;-74
2023/08/14 08:49:02;;;;;;;3.22;0.20;;;;;;;30.13;23.34;101542.16;4967148;28;20042;-76
2023/08/14 08:51:29;;;;;;;1.30;0.43;;;;;;;29.71;23.60;101530.69;4958267;28;20038;-76
2023/08/14 08:53:55;;;;;;;3.03;0.10;;;;;;;29.15;24.67;101525.19;4976063;28;20284;-75
2023/08/14 08:56:22;;;;;;;1.63;0.10;;;;;;;27.37;27.24;101519.81;4976708;28;20030;-74
2023/08/14 08:58:48;;;;;;;0.85;0.20;;;;;;;25.96;29.44;101528.38;4962889;28;20133;-76
2023/08/14 09:01:14;;;;;;;0.20;0.10;;;;;;;24.73;30.79;101529.91;4981318;28;20049;-76
2023/08/14 09:03:40;;;;;;;0.88;0.20;;;;;;;24.32;31.95;101525.56;4975466;28;20042;-76
2023/08/14 09:06:05;;;;;;;1.45;0.10;;;;;;;25.34;32.34;101536.81;4978790;28;20052;-75
2023/08/14 09:08:31;;;;;;;3.40;0.20;;;;;;;26.48;29.51;101528.69;4980252;28;20053;-77
2023/08/14 09:10:56;;;;;;;0.77;0.20;;;;;;;27.25;28.43;101518.38;4973436;28;20083;-76
2023/08/14 09:13:22;;;;;;;1.70;0.22;;;;;;;27.22;27.39;101516.00;4994785;28;20306;-77
2023/08/14 09:15:48;;;;;;;1.25;0.20;;;;;;;27.76;27.91;101515.88;4995008;28;20472;-76
2023/08/14 09:18:13;;;;;;;1.23;0.20;;;;;;;26.76;27.83;101509.88;4991504;28;20056;-76
2023/08/14 09:20:39;;;;;;;1.35;0.38;;;;;;;26.62;28.32;101509.41;4981591;28;20520;-76
2023/08/14 09:23:10;;;;;;;1.17;0.20;;;;;;;26.55;28.77;101510.16;4959984;28;20042;-77
2023/08/14 09:25:35;;;;;;;0.77;0.20;;;;;;;27.13;28.40;101512.41;4961498;28;20089;-77
2023/08/14 09:28:06;;;;;;;1.98;0.35;;;;;;;27.03;27.48;101509.81;4978287;28;20053;-77
2023/08/14 09:30:34;;;;;;;1.77;0.50;;;;;;;26.46;28.15;101503.84;4993820;28;20034;-75
2023/08/14 09:32:59;;;;;;;1.25;0.22;;;;;;;26.27;29.56;101504.84;4978910;28;20046;-75
2023/08/14 09:35:25;;;;;;;1.33;0.30;;;;;;;26.67;28.81;101491.06;4978571;28;20044;-76
2023/08/14 09:37:53;;;;;;;3.15;0.45;;;;;;;27.28;30.52;101500.13;4980552;28;20064;-77
2023/08/14 09:40:22;;;;;;;2.67;0.40;;;;;;;27.52;28.76;101491.38;4979941;28;20508;-75
2023/08/14 09:42:49;;;;;;;4.20;0.50;;;;;;;27.79;26.62;101491.41;4979524;28;20361;-75
2023/08/14 09:45:16;;;;;;;1.98;1.08;;;;;;;28.36;26.61;101493.47;4993989;28;21364;-78
2023/08/14 09:47:44;;;;;;;3.88;0.60;;;;;;;27.21;27.39;101482.97;4961052;28;20049;-77
2023/08/14 09:50:12;;;;;;;2.83;0.50;;;;;;;27.69;26.95;101497.72;4977701;28;20026;-76
2023/08/14 09:52:39;;;;;;;2.42;0.40;;;;;;;27.59;27.84;101501.50;4975899;28;20441;-76
2023/08/14 09:55:05;;;;;;;1.17;0.47;;;;;;;26.78;27.38;101500.72;4994390;28;20025;-76
2023/08/14 09:57:31;;;;;;;1.92;0.50;;;;;;;26.17;28.31;101483.44;4977753;28;20257;-77
2023/08/14 09:59:56;;;;;;;2.17;0.57;;;;;;;25.66;29.18;101490.13;4977971;28;20120;-77
2023/08/14 10:02:24;;;;;;;1.83;1.05;;;;;;;25.86;29.16;101480.19;4979581;28;20099;-77
2023/08/14 10:04:50;;;;;;;1.63;0.38;;;;;;;26.09;28.23;101478.00;4994983;28;20122;-76
2023/08/14 10:07:17;;;;;;;1.25;0.70;;;;;;;25.75;28.70;101489.25;4975313;28;20030;-77
2023/08/14 10:10:03;;;;;;;2.80;0.35;;;;;;;25.69;29.27;101489.84;4993252;28;20046;-77
2023/08/14 10:12:32;;;;;;;3.08;0.68;;;;;;;25.75;30.72;101494.59;4960026;28;20045;-76
2023/08/14 10:15:11;;;;;;;1.10;0.30;;;;;;;26.26;29.02;101493.25;4962422;28;20996;-77
2023/08/14 10:17:44;;;;;;;1.90;0.45;;;;;;;26.47;28.73;101505.56;4960171;28;20041;-77
2023/08/14 10:20:15;;;;;;;3.97;0.30;;;;;;;26.23;28.57;101498.94;4958170;28;20072;-77
2023/08/14 10:22:41;;;;;;;0.40;0.20;;;;;;;26.88;28.81;101497.94;4975078;28;20045;-77
2023/08/14 10:25:07;;;;;;;1.77;0.38;;;;;;;27.07;26.92;101503.13;4993060;28;20025;-78
2023/08/14 10:27:34;;;;;;;0.60;0.30;;;;;;;26.70;27.75;101492.59;4990965;28;20488;-77
2023/08/14 10:30:00;;;;;;;2.13;0.55;;;;;;;25.60;29.38;101498.78;4977423;28;20079;-76
2023/08/14 10:32:27;;;;;;;3.28;0.82;;;;;;;27.03;27.78;101500.91;4974835;28;20060;-74
2023/08/14 10:34:54;;;;;;;3.22;0.40;;;;;;;25.91;28.37;101512.75;4975202;28;20157;-76
2023/08/14 10:37:41;;;;;;;2.08;0.40;;;;;;;26.98;29.23;101511.25;4979916;28;20877;-75
2023/08/14 10:40:33;;;;;;;1.08;0.20;;;;;;;27.03;28.54;101506.28;4998691;28;20065;-77
2023/08/14 10:43:00;;;;;;;2.38;0.30;;;;;;;27.42;28.96;101506.75;4974745;28;20048;-74
2023/08/14 10:45:28;;;;;;;2.55;0.30;;;;;;;27.28;27.75;101499.28;4994369;28;20030;-76
2023/08/14 10:48:00;;;;;;;2.72;0.40;;;;;;;27.52;27.00;101485.19;4995118;28;20055;-76
2023/08/14 10:50:28;;;;;;;2.72;0.30;;;;;;;27.05;27.88;101486.34;4982611;28;20037;-77
2023/08/14 10:52:55;;;;;;;1.35;0.20;;;;;;;27.59;27.71;101486.22;4979366;28;20045;-76
2023/08/14 10:55:41;;;;;;;1.02;0.32;;;;;;;27.49;26.18;101480.94;4979810;28;20033;-74
2023/08/14 10:58:31;;;;;;;1.73;0.30;;;;;;;27.18;26.35;101477.06;4988899;28;20671;-75
2023/08/14 11:00:58;;;;;;;2.95;0.65;;;;;;;26.55;26.84;101475.31;4975139;28;20184;-77
2023/08/14 11:03:24;;;;;;;0.32;0.20;;;;;;;26.59;27.41;101472.19;4953673;28;20045;-76
2023/08/14 11:05:50;;;;;;;1.98;0.38;;;;;;;26.93;26.90;101478.69;4978011;28;20397;-75
2023/08/14 11:08:16;;;;;;;3.95;0.30;;;;;;;27.56;26.70;101478.47;4992737;28;20160;-75
2023/08/14 11:10:44;;;;;;;2.03;0.20;;;;;;;28.82;26.31;101472.38;4992807;28;20607;-73
2023/08/14 11:13:10;;;;;;;1.25;0.30;;;;;;;28.30;27.17;101462.69;4976662;28;20073;-75
2023/08/14 11:15:38;;;;;;;1.77;0.30;;;;;;;27.41;25.86;101456.78;4981204;28;20026;-76
2023/08/14 11:18:05;;;;;;;1.17;0.40;;;;;;;28.36;25.88;101461.22;4976853;28;20124;-78
2023/08/14 11:20:32;;;;;;;0.77;0.30;;;;;;;28.46;26.03;101464.59;4976871;28;20037;-76
2023/08/14 11:22:59;;;;;;;2.10;0.40;;;;;;;29.36;24.39;101459.22;4995806;28;20092;-75
2023/08/14 11:25:25;;;;;;;1.00;0.20;;;;;;;30.01;23.61;101454.63;4981556;28;20044;-78